Time;durP1;ratioP1;P1;durP2;ratioP2;P2;SDS_P1;SDS_P2;PMS_P1;PMS_P2;Temp;Humidity;BMP_temperature;BMP_pressure;BME280_temperature;BME280_humidity;BME280_pressure;Samples;Min_cycle;Max_cycle;Signal;HPM_P1;HPM_P2
2022/04/01 00:01:08;;;;;;;;;;;;;;;12.09;44.01;99179.63;4881441;28;101812;-63
2022/04/01 00:03:34;;;;;;;;;;;;;;;12.09;43.70;99176.13;4864841;28;98123;-64
2022/04/01 00:06:00;;;;;;;;;;;;;;;12.08;43.57;99169.94;4863271;28;122652;-63
2022/04/01 00:08:26;;;;;;;;;;;;;;;12.08;43.70;99169.16;4862841;28;127931;-63
2022/04/01 00:10:52;;;;;;;;;;;;;;;12.07;43.66;99167.56;4883296;28;98533;-64
2022/04/01 00:13:18;;;;;;;;;;;;;;;12.07;43.49;99173.75;4864637;28;98559;-63
2022/04/01 00:15:44;;;;;;;;;;;;;;;12.07;43.93;99173.75;4881365;28;122841;-65
2022/04/01 00:18:11;;;;;;;;;;;;;;;12.06;43.88;99169.44;4863944;28;98958;-64
2022/04/01 00:20:36;;;;;;;;;;;;;;;12.04;43.81;99177.84;4881501;28;98484;-64
2022/04/01 00:23:03;;;;;;;;;;;;;;;12.06;43.57;99169.44;4880827;28;115347;-65
2022/04/01 00:25:28;;;;;;;;;;;;;;;12.04;43.55;99172.44;4880279;28;115908;-65
2022/04/01 00:27:54;;;;;;;;;;;;;;;12.04;43.51;99175.16;4881710;28;103389;-64
2022/04/01 00:30:20;;;;;;;;;;;;;;;12.03;43.35;99170.88;4880865;28;98114;-64
2022/04/01 00:32:46;;;;;;;;;;;;;;;12.04;43.67;99167.06;4879986;28;127687;-65
2022/04/01 00:35:12;;;;;;;;;;;;;;;12.03;43.58;99164.66;4862595;28;123047;-64
2022/04/01 00:37:39;;;;;;;;;;;;;;;12.03;43.42;99170.06;4878363;28;99394;-64
2022/04/01 00:40:05;;;;;;;;;;;;;;;12.02;43.50;99165.75;4880951;28;98210;-64
2022/04/01 00:42:31;;;;;;;;;;;;;;;12.02;43.51;99169.28;4880529;28;122821;-64
2022/04/01 00:44:58;;;;;;;;;;;;;;;12.01;43.51;99161.47;4881480;28;122695;-64
2022/04/01 00:47:24;;;;;;;;;;;;;;;12.01;43.54;99167.66;4881307;28;99116;-65
2022/04/01 00:49:50;;;;;;;;;;;;;;;12.01;43.22;99166.88;4879852;28;115083;-63
2022/04/01 00:52:22;;;;;;;;;;;;;;;11.99;43.45;99164.47;4864231;28;97995;-64
2022/04/01 00:54:48;;;;;;;;;;;;;;;11.99;43.06;99161.78;4863078;28;98275;-64
2022/04/01 00:57:14;;;;;;;;;;;;;;;11.99;43.02;99169.09;4863834;28;98764;-64
2022/04/01 00:59:40;;;;;;;;;;;;;;;11.97;43.33;99169.38;4881030;28;98003;-64
2022/04/01 01:02:08;;;;;;;;;;;;;;;11.98;43.40;99170.97;4862996;28;127221;-65
2022/04/01 01:04:34;;;;;;;;;;;;;;;11.98;43.14;99162.88;4863192;28;98345;-64
2022/04/01 01:07:01;;;;;;;;;;;;;;;11.98;43.23;99162.06;4880687;28;105516;-65
2022/04/01 01:09:26;;;;;;;;;;;;;;;11.96;43.17;99170.50;4863231;28;99140;-64
2022/04/01 01:11:53;;;;;;;;;;;;;;;11.95;42.84;99168.91;4880226;28;127588;-63
2022/04/01 01:14:24;;;;;;;;;;;;;;;11.95;43.08;99173.50;4880796;28;98148;-64
2022/04/01 01:16:50;;;;;;;;;;;;;;;11.94;43.02;99166.50;4848286;28;98443;-64
2022/04/01 01:19:16;;;;;;;;;;;;;;;11.94;42.88;99163.78;4879784;28;127654;-64
2022/04/01 01:21:44;;;;;;;;;;;;;;;11.93;42.78;99170.31;4881681;28;98562;-64
2022/04/01 01:24:15;;;;;;;;;;;;;;;11.90;42.83;99163.59;4863657;28;97964;-65
2022/04/01 01:26:41;;;;;;;;;;;;;;;11.90;42.69;99160.13;4880566;28;98857;-64
2022/04/01 01:29:07;;;;;;;;;;;;;;;11.89;43.01;99162.03;4880444;28;102057;-64
2022/04/01 01:31:33;;;;;;;;;;;;;;;11.88;42.93;99156.94;4879784;28;127157;-65
2022/04/01 01:33:59;;;;;;;;;;;;;;;11.85;42.50;99155.63;4879479;28;122436;-64
2022/04/01 01:36:26;;;;;;;;;;;;;;;11.86;42.90;99156.44;4878924;28;126297;-64
2022/04/01 01:38:52;;;;;;;;;;;;;;;11.84;42.61;99154.06;4853162;28;126326;-64
2022/04/01 01:41:18;;;;;;;;;;;;;;;11.84;42.68;99153.25;4854194;28;110469;-64
2022/04/01 01:43:44;;;;;;;;;;;;;;;11.82;42.73;99155.41;4862970;28;117979;-65
2022/04/01 01:46:10;;;;;;;;;;;;;;;11.81;42.71;99151.94;4879460;28;126142;-65
2022/04/01 01:48:36;;;;;;;;;;;;;;;11.80;42.58;99153.03;4862817;28;98461;-62
2022/04/01 01:56:31;;;;;;;;;;;;;;;11.74;42.48;99146.16;4877105;28;98165;-62
2022/04/01 01:58:57;;;;;;;;;;;;;;;11.72;42.26;99141.06;4879646;28;99370;-62
2022/04/01 02:01:23;;;;;;;;;;;;;;;11.72;42.10;99145.69;4880336;28;98310;-63
2022/04/01 02:03:49;;;;;;;;;;;;;;;11.71;42.80;99144.88;4879547;28;123999;-63
2022/04/01 02:06:15;;;;;;;;;;;;;;;11.71;42.00;99142.19;4879866;28;98868;-63
2022/04/01 02:08:41;;;;;;;;;;;;;;;11.70;42.33;99142.47;4880127;28;128885;-62
2022/04/01 02:11:08;;;;;;;;;;;;;;;11.68;41.97;99147.41;4880307;28;98022;-62
2022/04/01 02:13:34;;;;;;;;;;;;;;;11.67;42.09;99137.69;4880752;28;97980;-62
2022/04/01 02:16:00;;;;;;;;;;;;;;;11.66;42.25;99139.59;4880679;28;98296;-62
2022/04/01 02:18:26;;;;;;;;;;;;;;;11.66;42.30;99141.50;4881764;28;98621;-62
2022/04/01 02:20:53;;;;;;;;;;;;;;;11.65;42.29;99146.09;4879909;28;106293;-62
2022/04/01 02:23:19;;;;;;;;;;;;;;;11.65;42.05;99139.91;4863182;28;97775;-64
2022/04/01 02:25:45;;;;;;;;;;;;;;;11.64;41.99;99132.91;4872221;28;126721;-63
2022/04/01 02:28:12;;;;;;;;;;;;;;;11.63;41.74;99134.81;4860652;28;128182;-62
2022/04/01 02:30:38;;;;;;;;;;;;;;;11.63;41.59;99142.91;4879792;28;97837;-63
2022/04/01 02:33:06;;;;;;;;;;;;;;;11.62;41.79;99135.91;4881093;28;97739;-62
2022/04/01 02:35:32;;;;;;;;;;;;;;;11.62;41.86;99148.59;4861871;28;99242;-65
2022/04/01 02:37:59;;;;;;;;;;;;;;;11.62;42.24;99154.00;4881670;28;125966;-63
2022/04/01 02:40:24;;;;;;;;;;;;;;;11.61;42.04;99150.50;4882699;28;113039;-62
2022/04/01 02:42:53;;;;;;;;;;;;;;;11.61;42.07;99152.41;4884124;28;98171;-63
2022/04/01 02:45:21;;;;;;;;;;;;;;;11.61;41.53;99157.81;4882897;28;99166;-63
2022/04/01 02:47:47;;;;;;;;;;;;;;;11.60;41.73;99153.53;4884520;28;98468;-63
2022/04/01 02:50:13;;;;;;;;;;;;;;;11.60;41.92;99151.63;4864565;28;99118;-63
2022/04/01 02:52:39;;;;;;;;;;;;;;;11.59;41.91;99147.31;4883260;28;97976;-63
2022/04/01 02:55:06;;;;;;;;;;;;;;;11.59;41.77;99162.69;4882966;28;98404;-63
2022/04/01 02:57:33;;;;;;;;;;;;;;;11.59;42.07;99151.91;4883439;28;99082;-63
2022/04/01 02:59:59;;;;;;;;;;;;;;;11.58;41.55;99147.63;4882735;28;99078;-63
2022/04/01 03:02:25;;;;;;;;;;;;;;;11.57;41.67;99157.63;4882841;28;120134;-63
2022/04/01 03:04:51;;;;;;;;;;;;;;;11.57;41.52;99159.53;4880995;28;127421;-63
2022/04/01 03:07:18;;;;;;;;;;;;;;;11.55;41.33;99168.72;4882726;28;117668;-64
2022/04/01 03:09:44;;;;;;;;;;;;;;;11.55;41.51;99163.34;4883163;28;98095;-64
2022/04/01 03:12:11;;;;;;;;;;;;;;;11.54;41.82;99164.41;4882737;28;97814;-62
2022/04/01 03:14:37;;;;;;;;;;;;;;;11.54;41.64;99159.03;4882087;28;98707;-64
2022/04/01 03:17:03;;;;;;;;;;;;;;;11.54;41.33;99166.31;4881788;28;123736;-62
2022/04/01 03:19:29;;;;;;;;;;;;;;;11.52;41.58;99163.16;4882557;28;98057;-62
2022/04/01 03:21:55;;;;;;;;;;;;;;;11.53;41.66;99165.53;4881838;28;120946;-62
2022/04/01 03:24:21;;;;;;;;;;;;;;;11.53;41.45;99162.03;4872880;28;98141;-63
2022/04/01 03:26:47;;;;;;;;;;;;;;;11.51;41.31;99167.75;4869048;28;127940;-63
2022/04/01 03:29:13;;;;;;;;;;;;;;;11.52;41.46;99173.94;4881721;28;99379;-62
2022/04/01 03:31:40;;;;;;;;;;;;;;;11.51;41.61;99162.34;4883861;28;97824;-63
2022/04/01 03:34:06;;;;;;;;;;;;;;;11.51;41.21;99178.53;4882149;28;99153;-64
2022/04/01 03:36:32;;;;;;;;;;;;;;;11.50;41.61;99168.03;4865061;28;99060;-62
2022/04/01 03:38:58;;;;;;;;;;;;;;;11.49;41.30;99174.53;4882378;28;98056;-62
2022/04/01 03:41:24;;;;;;;;;;;;;;;11.49;41.46;99172.63;4864316;28;110566;-62
2022/04/01 03:43:52;;;;;;;;;;;;;;;11.48;41.23;99173.75;4863522;28;128071;-64
2022/04/01 03:46:19;;;;;;;;;;;;;;;11.48;41.46;99173.75;4881917;28;98260;-62
2022/04/01 03:48:45;;;;;;;;;;;;;;;11.47;41.17;99174.81;4864427;28;126164;-63
2022/04/01 03:51:30;;;;;;;;;;;;;;;11.48;41.73;99175.66;4882621;28;97946;-63
2022/04/01 03:54:02;;;;;;;;;;;;;;;11.47;41.27;99174.81;4882090;28;99100;-63
2022/04/01 03:56:34;;;;;;;;;;;;;;;11.47;41.46;99179.44;4883332;28;99782;-64
2022/04/01 03:59:01;;;;;;;;;;;;;;;11.46;41.22;99181.34;4881154;28;97732;-63
2022/04/01 04:01:27;;;;;;;;;;;;;;;11.45;41.23;99177.03;4882285;28;97942;-62
2022/04/01 04:03:53;;;;;;;;;;;;;;;11.45;41.05;99179.75;4881815;28;109438;-63
2022/04/01 04:06:19;;;;;;;;;;;;;;;11.44;41.84;99177.38;4863912;28;122603;-63
2022/04/01 04:08:46;;;;;;;;;;;;;;;11.44;41.50;99178.16;4882011;28;98828;-62
2022/04/01 04:11:12;;;;;;;;;;;;;;;11.42;41.33;99187.66;4882962;28;97854;-62
2022/04/01 04:13:38;;;;;;;;;;;;;;;11.42;41.12;99168.75;4881452;28;128160;-63
2022/04/01 04:16:09;;;;;;;;;;;;;;;11.41;41.58;99184.16;4882321;28;99259;-63
2022/04/01 04:18:42;;;;;;;;;;;;;;;11.41;41.49;99183.34;4864939;28;97882;-62
2022/04/01 04:21:31;;;;;;;;;;;;;;;11.40;41.69;99184.47;4864585;28;98770;-64
2022/04/01 04:23:58;;;;;;;;;;;;;;;11.39;41.04;99180.94;4882399;28;98373;-62
2022/04/01 04:26:30;;;;;;;;;;;;;;;11.39;41.70;99182.84;4882106;28;98641;-64
2022/04/01 04:29:01;;;;;;;;;;;;;;;11.38;41.68;99192.84;4881300;28;99634;-63
2022/04/01 04:31:29;;;;;;;;;;;;;;;11.39;41.09;99196.34;4882372;28;97797;-62
2022/04/01 04:33:56;;;;;;;;;;;;;;;11.38;41.13;99210.94;4865822;28;98351;-64
2022/04/01 04:36:27;;;;;;;;;;;;;;;11.37;41.59;99204.75;4882275;28;98396;-64
2022/04/01 04:38:53;;;;;;;;;;;;;;;11.36;41.63;99205.84;4864478;28;98799;-63
2022/04/01 04:41:20;;;;;;;;;;;;;;;11.36;41.67;99205.84;4881648;28;101375;-63
2022/04/01 04:43:46;;;;;;;;;;;;;;;11.37;41.55;99209.34;4848222;28;98775;-63
2022/04/01 04:46:12;;;;;;;;;;;;;;;11.36;41.47;99207.72;4880578;28;108752;-63
2022/04/01 04:48:41;;;;;;;;;;;;;;;11.37;41.64;99220.94;4863217;28;98217;-63
2022/04/01 04:51:07;;;;;;;;;;;;;;;11.36;40.99;99222.03;4871500;28;106313;-65
2022/04/01 04:53:34;;;;;;;;;;;;;;;11.36;41.25;99235.53;4876054;28;117967;-64
2022/04/01 04:56:02;;;;;;;;;;;;;;;11.36;41.38;99224.75;4878437;28;99548;-64
2022/04/01 04:58:31;;;;;;;;;;;;;;;11.37;41.05;99233.63;4877661;28;98661;-65
2022/04/01 05:01:02;;;;;;;;;;;;;;;11.35;41.15;99235.81;4878596;28;98077;-65
2022/04/01 05:03:58;;;;;;;;;;;;;;;11.36;41.23;99243.63;4878838;28;98495;-65
2022/04/01 05:06:29;;;;;;;;;;;;;;;11.35;41.43;99236.59;4877873;28;99629;-62
2022/04/01 05:09:06;;;;;;;;;;;;;;;11.36;41.55;99248.19;4878316;28;98983;-63
2022/04/01 05:12:05;;;;;;;;;;;;;;;11.36;41.67;99242.81;4878915;28;98125;-64
2022/04/01 05:14:44;;;;;;;;;;;;;;;11.35;41.33;99249.31;4877719;28;98145;-62
2022/04/01 05:17:18;;;;;;;;;;;;;;;11.34;41.43;99245.81;4877536;28;98455;-64
2022/04/01 05:19:49;;;;;;;;;;;;;;;11.32;41.46;99248.03;4868373;28;98223;-64
2022/04/01 05:22:15;;;;;;;;;;;;;;;11.31;41.25;99254.50;4854449;28;117054;-63
2022/04/01 05:24:48;;;;;;;;;;;;;;;11.30;41.65;99256.41;4850853;28;98399;-64
2022/04/01 05:27:18;;;;;;;;;;;;;;;11.30;41.04;99271.78;4873892;28;98508;-66
2022/04/01 05:29:44;;;;;;;;;;;;;;;11.29;41.67;99267.50;4859449;28;99675;-65
2022/04/01 05:32:11;;;;;;;;;;;;;;;11.28;41.65;99269.41;4878848;28;98295;-63
2022/04/01 05:34:47;;;;;;;;;;;;;;;11.28;41.67;99272.09;4877882;28;98876;-64
2022/04/01 05:37:15;;;;;;;;;;;;;;;11.27;40.84;99262.41;4860835;28;99644;-65
2022/04/01 05:39:42;;;;;;;;;;;;;;;11.27;41.58;99272.38;4877934;28;97950;-65
2022/04/01 05:42:08;;;;;;;;;;;;;;;11.28;41.59;99268.63;4875418;28;99648;-62
2022/04/01 05:44:35;;;;;;;;;;;;;;;11.28;41.13;99271.31;4876406;28;128035;-63
2022/04/01 05:47:01;;;;;;;;;;;;;;;11.27;41.44;99280.47;4877253;28;98858;-65
2022/04/01 05:49:28;;;;;;;;;;;;;;;11.29;41.33;99275.59;4877838;28;98254;-63
2022/04/01 05:51:54;;;;;;;;;;;;;;;11.29;41.37;99281.00;4871736;28;98038;-63
2022/04/01 05:54:21;;;;;;;;;;;;;;;11.28;41.31;99285.59;4877374;28;109511;-64
2022/04/01 05:56:47;;;;;;;;;;;;;;;11.28;41.09;99276.72;4873379;28;122597;-65
2022/04/01 05:59:18;;;;;;;;;;;;;;;11.28;41.09;99282.09;4877102;28;98337;-63
2022/04/01 06:02:45;;;;;;;;;;;;;;;11.27;41.37;99283.97;4875442;28;98100;-63
2022/04/01 06:05:38;;;;;;;;;;;;;;;11.28;41.71;99284.81;4796979;29;98849;-64
2022/04/01 06:08:22;;;;;;;;;;;;;;;11.29;41.64;99284.50;4795434;29;128994;-64
2022/04/01 06:11:13;;;;;;;;;;;;;;;11.31;41.08;99284.19;4842456;28;126744;-63
2022/04/01 06:14:02;;;;;;;;;;;;;;;11.33;41.38;99279.28;4868073;28;98255;-63
2022/04/01 06:16:52;;;;;;;;;;;;;;;11.38;41.43;99278.38;4877764;28;98449;-65
2022/04/01 06:19:29;;;;;;;;;;;;;;;11.40;41.37;99279.69;4868638;28;98908;-63
2022/04/01 06:22:06;;;;;;;;;;;;;;;11.45;41.63;99289.59;4860333;28;98401;-63
2022/04/01 06:24:52;;;;;;;;;;;;;;;11.49;41.20;99298.66;4873029;28;120447;-63
2022/04/01 06:27:25;;;;;;;;;;;;;;;11.52;40.80;99300.78;4876761;28;98395;-63
2022/04/01 06:30:07;;;;;;;;;;;;;;;11.59;40.99;99298.44;4874232;28;106107;-66
2022/04/01 06:32:43;;;;;;;;;;;;;;;11.66;41.13;99289.94;4890390;28;111861;-65
2022/04/01 06:35:38;;;;;;;;;;;;;;;11.72;41.18;99304.94;4880031;28;100571;-63
2022/04/01 06:38:06;;;;;;;;;;;;;;;11.74;40.97;99306.22;4893766;28;98977;-63
2022/04/01 06:40:53;;;;;;;;;;;;;;;11.77;41.16;99307.53;4896036;28;99080;-65
2022/04/01 06:43:19;;;;;;;;;;;;;;;11.80;41.21;99321.22;4876667;28;99528;-63
2022/04/01 06:45:45;;;;;;;;;;;;;;;11.82;40.86;99310.09;4894476;28;123380;-64
2022/04/01 06:48:11;;;;;;;;;;;;;;;11.85;41.16;99312.25;4895356;28;128643;-63
2022/04/01 06:50:37;;;;;;;;;;;;;;;11.87;41.20;99312.75;4868414;28;99044;-63
2022/04/01 06:53:03;;;;;;;;;;;;;;;11.91;41.21;99311.03;4876185;28;127811;-63
2022/04/01 06:55:29;;;;;;;;;;;;;;;11.93;41.23;99313.44;4868250;28;117789;-63
2022/04/01 06:57:55;;;;;;;;;;;;;;;11.96;40.89;99307.44;4869496;28;126421;-63
2022/04/01 07:00:21;;;;;;;;;;;;;;;11.98;41.07;99307.91;4893028;28;98297;-63
2022/04/01 07:02:48;;;;;;;;;;;;;;;12.01;40.96;99305.41;4876308;28;128135;-65
2022/04/01 07:05:14;;;;;;;;;;;;;;;12.02;41.04;99315.13;4870485;28;98411;-63
2022/04/01 07:07:42;;;;;;;;;;;;;;;12.03;40.99;99319.41;4894538;28;127576;-63
2022/04/01 07:10:09;;;;;;;;;;;;;;;12.05;41.08;99319.09;4891011;28;98877;-65
2022/04/01 07:12:36;;;;;;;;;;;;;;;12.04;41.03;99326.41;4861699;28;98142;-63
2022/04/01 07:15:02;;;;;;;;;;;;;;;12.04;41.08;99318.31;4853933;28;98199;-63
2022/04/01 07:17:28;;;;;;;;;;;;;;;12.06;40.88;99319.88;4877078;28;99674;-64
2022/04/01 07:19:54;;;;;;;;;;;;;;;12.04;40.99;99326.41;4886170;28;126765;-62
2022/04/01 07:22:20;;;;;;;;;;;;;;;12.05;41.34;99324.50;4892675;28;127800;-63
2022/04/01 07:24:46;;;;;;;;;;;;;;;12.06;41.21;99326.09;4890550;28;122715;-64
2022/04/01 07:27:12;;;;;;;;;;;;;;;12.05;41.42;99338.00;4894178;28;98438;-64
2022/04/01 07:29:38;;;;;;;;;;;;;;;12.05;41.12;99332.59;4876901;28;98755;-65
2022/04/01 07:34:49;;;;;;;;;;;;;;;12.07;41.15;99340.41;4881850;28;97918;-65
2022/04/01 07:37:15;;;;;;;;;;;;;;;12.10;41.45;99345.19;4879263;28;126662;-65
2022/04/01 07:39:41;;;;;;;;;;;;;;;12.11;41.23;99336.81;4891820;28;99081;-64
2022/04/01 07:42:07;;;;;;;;;;;;;;;12.14;41.41;99335.38;4898090;28;128126;-65
2022/04/01 07:44:33;;;;;;;;;;;;;;;12.16;41.32;99331.28;4899011;28;98089;-63
2022/04/01 07:47:00;;;;;;;;;;;;;;;12.17;41.51;99334.78;4893144;28;127918;-63
2022/04/01 07:49:26;;;;;;;;;;;;;;;12.19;41.22;99332.56;4892815;28;98556;-65
2022/04/01 07:51:52;;;;;;;;;;;;;;;12.20;41.48;99342.28;4879636;28;98498;-63
2022/04/01 07:54:18;;;;;;;;;;;;;;;12.19;41.55;99332.56;4891342;28;124738;-66
2022/04/01 07:56:44;;;;;;;;;;;;;;;12.21;41.34;99343.88;4894552;28;129308;-63
2022/04/01 07:59:10;;;;;;;;;;;;;;;12.23;41.51;99341.66;4872904;28;102525;-66
2022/04/01 08:01:37;;;;;;;;;;;;;;;12.23;41.62;99338.97;4863391;28;100540;-65
2022/04/01 08:04:03;;;;;;;;;;;;;;;12.27;41.35;99340.75;4871404;28;117893;-63
2022/04/01 08:06:32;;;;;;;;;;;;;;;12.29;41.49;99346.63;4895810;28;127230;-66
2022/04/01 08:08:59;;;;;;;;;;;;;;;12.33;41.21;99349.53;4892113;28;98307;-65
2022/04/01 08:11:25;;;;;;;;;;;;;;;12.36;41.55;99356.22;4893439;28;98114;-65
2022/04/01 08:13:52;;;;;;;;;;;;;;;12.40;41.43;99354.50;4891978;28;98072;-64
2022/04/01 08:16:18;;;;;;;;;;;;;;;12.44;41.28;99363.59;4891431;28;98923;-63
2022/04/01 08:18:44;;;;;;;;;;;;;;;12.47;41.08;99363.00;4894177;28;126063;-63
2022/04/01 08:21:10;;;;;;;;;;;;;;;12.50;41.31;99359.69;4894584;28;98618;-65
2022/04/01 08:23:37;;;;;;;;;;;;;;;12.55;41.17;99358.78;4895695;28;121070;-64
2022/04/01 08:26:06;;;;;;;;;;;;;;;12.56;41.23;99366.56;4878855;28;98508;-63
2022/04/01 08:28:33;;;;;;;;;;;;;;;12.60;41.38;99364.03;4873480;28;98040;-64
2022/04/01 08:30:59;;;;;;;;;;;;;;;12.61;41.31;99368.34;4896806;28;98169;-65
2022/04/01 08:33:25;;;;;;;;;;;;;;;12.62;41.29;99367.25;4894346;28;109942;-63
2022/04/01 08:35:51;;;;;;;;;;;;;;;12.62;41.00;99369.97;4886631;28;128495;-63
2022/04/01 08:38:17;;;;;;;;;;;;;;;12.65;41.28;99367.41;4895102;28;125139;-63
2022/04/01 08:40:43;;;;;;;;;;;;;;;12.70;41.13;99371.91;4895565;28;127713;-63
2022/04/01 08:43:09;;;;;;;;;;;;;;;12.76;41.07;99363.34;4897067;28;98167;-63
2022/04/01 08:45:37;;;;;;;;;;;;;;;12.81;41.19;99378.69;4890841;28;128126;-63
2022/04/01 08:48:04;;;;;;;;;;;;;;;12.86;41.04;99377.75;4897249;28;99040;-64
2022/04/01 08:50:30;;;;;;;;;;;;;;;12.90;41.21;99382.22;4894267;28;105823;-64
2022/04/01 08:52:56;;;;;;;;;;;;;;;12.96;41.17;99391.81;4892832;28;98630;-63
2022/04/01 08:55:22;;;;;;;;;;;;;;;13.01;40.95;99380.88;4889606;28;127742;-64
2022/04/01 08:57:48;;;;;;;;;;;;;;;13.09;40.98;99384.75;4890318;28;98924;-63
2022/04/01 09:00:14;;;;;;;;;;;;;;;13.14;41.03;99386.50;4865693;28;98429;-63
2022/04/01 09:02:43;;;;;;;;;;;;;;;13.19;41.19;99386.38;4896913;28;97896;-65
2022/04/01 09:05:09;;;;;;;;;;;;;;;13.25;41.14;99390.59;4869528;28;128687;-63
2022/04/01 09:07:35;;;;;;;;;;;;;;;13.28;41.11;99395.34;4896918;28;125027;-63
2022/04/01 09:10:06;;;;;;;;;;;;;;;13.30;41.10;99397.78;4890270;28;99298;-64
2022/04/01 09:12:32;;;;;;;;;;;;;;;13.33;41.21;99400.66;4888590;28;119813;-64
2022/04/01 09:14:58;;;;;;;;;;;;;;;13.36;41.09;99401.91;4896896;28;98397;-64
2022/04/01 09:17:39;;;;;;;;;;;;;;;13.37;41.30;99395.41;4897412;28;98338;-63
2022/04/01 09:20:06;;;;;;;;;;;;;;;13.46;41.35;99401.66;4890958;28;103599;-63
2022/04/01 09:22:32;;;;;;;;;;;;;;;13.54;41.30;99402.81;4897254;28;97901;-63
2022/04/01 09:25:12;;;;;;;;;;;;;;;13.64;40.99;99407.97;4892693;28;127543;-63
2022/04/01 09:27:51;;;;;;;;;;;;;;;13.73;41.30;99406.88;4897315;28;98398;-63
2022/04/01 09:30:26;;;;;;;;;;;;;;;13.82;41.16;99400.69;4879556;28;124425;-64
2022/04/01 09:32:57;;;;;;;;;;;;;;;13.92;41.11;99408.53;4878335;28;97956;-63
2022/04/01 09:35:27;;;;;;;;;;;;;;;13.98;40.90;99405.34;4876142;28;119533;-63
2022/04/01 09:38:01;;;;;;;;;;;;;;;14.02;40.91;99404.72;4844001;28;97899;-63
2022/04/01 09:40:27;;;;;;;;;;;;;;;14.05;41.14;99412.22;4876872;28;98411;-65
2022/04/01 09:42:58;;;;;;;;;;;;;;;14.07;41.16;99415.41;4874910;28;122682;-64
2022/04/01 09:45:28;;;;;;;;;;;;;;;14.09;41.01;99416.69;4856202;28;99338;-62
2022/04/01 09:48:00;;;;;;;;;;;;;;;14.09;41.19;99413.97;4877223;28;100093;-65
2022/04/01 09:50:28;;;;;;;;;;;;;;;14.11;41.02;99416.34;4872161;28;99465;-65
2022/04/01 09:52:55;;;;;;;;;;;;;;;14.13;40.99;99419.56;4875275;28;98240;-64
2022/04/01 09:55:21;;;;;;;;;;;;;;;14.13;41.04;99411.44;4875102;28;98412;-63
2022/04/01 09:57:47;;;;;;;;;;;;;;;14.16;41.08;99410.81;4874888;28;128536;-65
2022/04/01 10:00:13;;;;;;;;;;;;;;;14.19;40.99;99410.19;4841204;28;126768;-65
2022/04/01 10:02:39;;;;;;;;;;;;;;;14.24;41.10;99399.97;4874219;28;117031;-64
2022/04/01 10:05:06;;;;;;;;;;;;;;;14.31;41.13;99409.56;4873620;28;98506;-65
2022/04/01 10:07:32;;;;;;;;;;;;;;;14.38;40.94;99407.97;4874361;28;99193;-65
2022/04/01 10:09:58;;;;;;;;;;;;;;;14.45;40.87;99404.78;4860824;28;128309;-65
2022/04/01 10:12:26;;;;;;;;;;;;;;;14.49;41.06;99395.72;4842599;28;104942;-64
2022/04/01 10:14:57;;;;;;;;;;;;;;;14.56;40.84;99400.66;4871600;28;99056;-63
2022/04/01 10:17:24;;;;;;;;;;;;;;;14.61;41.06;99395.06;4875805;28;98218;-64
2022/04/01 10:19:50;;;;;;;;;;;;;;;14.68;40.76;99391.88;4868265;28;98239;-64
2022/04/01 10:22:16;;;;;;;;;;;;;;;14.75;40.77;99396.84;4866891;28;122973;-64
2022/04/01 10:25:07;;;;;;;;;;;;;;;14.84;40.83;99392.97;4871603;28;99572;-63
2022/04/01 10:27:38;;;;;;;;;;;;;;;14.91;40.86;99392.50;4876076;28;98900;-63
2022/04/01 10:30:04;;;;;;;;;;;;;;;14.92;40.74;99391.38;4869644;28;98240;-65
2022/04/01 10:32:41;;;;;;;;;;;;;;;14.95;40.64;99390.75;4854892;28;98126;-64
2022/04/01 10:35:08;;;;;;;;;;;;;;;15.06;41.00;99393.91;4873367;28;99200;-65
2022/04/01 10:37:35;;;;;;;;;;;;;;;15.15;40.81;99392.75;4875579;28;126203;-65
2022/04/01 10:40:07;;;;;;;;;;;;;;;15.17;40.93;99395.97;4875620;28;124000;-65
2022/04/01 10:42:35;;;;;;;;;;;;;;;15.15;40.97;99384.63;4876783;28;97907;-63
2022/04/01 10:45:25;;;;;;;;;;;;;;;15.19;40.69;99393.72;4875953;28;125573;-65
2022/04/01 10:53:38;;;;;;;;;;;;;;;15.42;40.54;99390.78;4871278;28;98325;-64
2022/04/01 10:56:23;;;;;;;;;;;;;;;15.46;40.92;99383.56;4876275;28;99627;-64
2022/04/01 10:59:05;;;;;;;;;;;;;;;15.44;40.69;99389.34;4879052;28;98631;-64
2022/04/01 11:01:31;;;;;;;;;;;;;;;15.43;40.81;99386.94;4878994;28;98554;-64
2022/04/01 11:04:07;;;;;;;;;;;;;;;15.41;41.16;99391.91;4879975;28;98072;-64
2022/04/01 11:06:33;;;;;;;;;;;;;;;15.45;40.75;99398.28;4879215;28;99023;-65
2022/04/01 11:09:01;;;;;;;;;;;;;;;15.59;40.84;99395.34;4879811;28;99011;-64
2022/04/01 11:11:27;;;;;;;;;;;;;;;15.73;40.84;99395.16;4879224;28;98931;-65
2022/04/01 11:14:03;;;;;;;;;;;;;;;15.75;40.57;99399.13;4878579;28;98136;-63
2022/04/01 11:16:46;;;;;;;;;;;;;;;15.74;40.81;99400.25;4879617;28;99273;-63
2022/04/01 11:19:16;;;;;;;;;;;;;;;15.74;40.90;99394.81;4872346;28;100753;-64
2022/04/01 11:21:43;;;;;;;;;;;;;;;15.73;40.62;99389.72;4878266;28;98987;-63
2022/04/01 11:24:33;;;;;;;;;;;;;;;15.73;40.77;99395.94;4873880;28;109684;-63
2022/04/01 11:27:05;;;;;;;;;;;;;;;15.76;40.85;99387.16;4879053;28;99036;-64
2022/04/01 11:29:32;;;;;;;;;;;;;;;15.77;40.71;99385.22;4879829;28;99284;-65
2022/04/01 11:32:05;;;;;;;;;;;;;;;15.77;40.93;99388.75;4877049;28;98985;-63
2022/04/01 11:34:31;;;;;;;;;;;;;;;15.76;40.96;99392.59;4893064;28;98178;-64
2022/04/01 11:37:01;;;;;;;;;;;;;;;15.75;40.71;99382.81;4892451;28;98821;-63
2022/04/01 11:39:28;;;;;;;;;;;;;;;15.77;41.09;99388.75;4889278;28;98224;-64
2022/04/01 11:41:54;;;;;;;;;;;;;;;15.79;40.81;99386.47;4898032;28;97723;-65
2022/04/01 11:44:21;;;;;;;;;;;;;;;15.79;40.77;99388.41;4893249;28;98224;-65
2022/04/01 11:46:51;;;;;;;;;;;;;;;15.74;40.76;99397.53;4874194;28;99016;-64
2022/04/01 11:49:17;;;;;;;;;;;;;;;15.72;41.04;99402.50;4888385;28;99063;-64
2022/04/01 11:51:43;;;;;;;;;;;;;;;15.71;40.92;99404.41;4876068;28;98280;-64
2022/04/01 11:54:13;;;;;;;;;;;;;;;15.77;40.95;99404.25;4891753;28;121464;-64
2022/04/01 11:56:38;;;;;;;;;;;;;;;15.84;40.82;99401.81;4890477;28;99173;-66
2022/04/01 11:59:05;;;;;;;;;;;;;;;15.92;40.92;99400.97;4877253;28;126994;-64
2022/04/01 12:01:32;;;;;;;;;;;;;;;16.01;40.83;99407.16;4877084;28;116414;-64
2022/04/01 12:04:08;;;;;;;;;;;;;;;16.15;40.52;99415.03;4897638;28;97767;-63
2022/04/01 12:09:19;;;;;;;;;;;;;;;16.53;40.36;99406.00;4891946;28;98374;-64
2022/04/01 12:11:46;;;;;;;;;;;;;;;16.89;39.81;99398.00;4897373;28;98571;-65
2022/04/01 12:14:12;;;;;;;;;;;;;;;17.16;39.78;99402.06;4890420;28;98223;-65
2022/04/01 12:16:43;;;;;;;;;;;;;;;17.35;39.77;99393.38;4892901;28;125929;-65
2022/04/01 12:19:16;;;;;;;;;;;;;;;17.49;39.55;99398.50;4894019;28;98866;-65
2022/04/01 12:21:42;;;;;;;;;;;;;;;17.59;39.66;99399.97;4880177;28;98556;-63
2022/04/01 12:24:08;;;;;;;;;;;;;;;17.63;39.79;99395.44;4889579;28;122110;-65
2022/04/01 12:26:34;;;;;;;;;;;;;;;17.69;39.86;99396.81;4897264;28;126082;-64
2022/04/01 12:29:00;;;;;;;;;;;;;;;17.71;40.07;99396.47;4858416;28;127433;-63
2022/04/01 12:31:26;;;;;;;;;;;;;;;17.74;39.90;99395.78;4871813;28;127978;-64
2022/04/01 12:33:56;;;;;;;;;;;;;;;17.83;39.86;99394.56;4874282;28;104442;-65
2022/04/01 12:36:33;;;;;;;;;;;;;;;17.91;39.88;99382.75;4864939;28;99027;-65
2022/04/01 12:39:06;;;;;;;;;;;;;;;17.95;39.87;99391.03;4891415;28;98907;-65
2022/04/01 12:41:32;;;;;;;;;;;;;;;17.89;40.01;99393.22;4897919;28;99143;-64
2022/04/01 12:44:00;;;;;;;;;;;;;;;17.88;39.88;99396.25;4892826;28;98113;-64
2022/04/01 12:46:30;;;;;;;;;;;;;;;17.91;39.87;99382.75;4892956;28;98536;-64
2022/04/01 12:49:00;;;;;;;;;;;;;;;17.97;39.79;99388.78;4872014;28;99122;-64
2022/04/01 12:51:31;;;;;;;;;;;;;;;18.07;39.61;99393.75;4896020;28;97895;-63
2022/04/01 12:54:03;;;;;;;;;;;;;;;18.09;39.84;99383.31;4895797;28;98131;-64
2022/04/01 12:56:31;;;;;;;;;;;;;;;18.06;39.81;99385.94;4893017;28;98623;-63
2022/04/01 12:58:58;;;;;;;;;;;;;;;17.99;39.92;99378.31;4873189;28;98354;-63
2022/04/01 13:01:25;;;;;;;;;;;;;;;17.97;40.02;99393.44;4889762;28;116507;-64
2022/04/01 13:03:51;;;;;;;;;;;;;;;17.94;40.15;99391.38;4896412;28;98399;-65
2022/04/01 13:06:17;;;;;;;;;;;;;;;17.95;39.99;99388.31;4896269;28;99044;-64
2022/04/01 13:08:43;;;;;;;;;;;;;;;17.93;40.05;99381.63;4891995;28;99027;-65